sensor_id;sensor_type;location;lat;lon;timestamp;P1;durP1;ratioP1;P2;durP2;ratioP2
4391;SDS011;2210;51.938;8.488;2023-07-31T00:02:18;1.60;;;1.10;;
4391;SDS011;2210;51.938;8.488;2023-07-31T00:06:22;1.80;;;1.03;;
4391;SDS011;2210;51.938;8.488;2023-07-31T00:10:22;1.57;;;1.17;;
4391;SDS011;2210;51.938;8.488;2023-07-31T00:14:22;1.30;;;1.10;;
4391;SDS011;2210;51.938;8.488;2023-07-31T00:18:23;1.20;;;1.00;;
4391;SDS011;2210;51.938;8.488;2023-07-31T00:22:23;1.60;;;1.23;;
4391;SDS011;2210;51.938;8.488;2023-07-31T00:26:29;1.50;;;1.40;;
4391;SDS011;2210;51.938;8.488;2023-07-31T00:30:30;1.43;;;1.33;;
4391;SDS011;2210;51.938;8.488;2023-07-31T00:34:48;1.30;;;1.10;;
4391;SDS011;2210;51.938;8.488;2023-07-31T00:38:48;1.27;;;1.17;;
4391;SDS011;2210;51.938;8.488;2023-07-31T00:42:49;1.23;;;1.10;;
4391;SDS011;2210;51.938;8.488;2023-07-31T00:46:52;1.40;;;1.03;;
4391;SDS011;2210;51.938;8.488;2023-07-31T00:50:53;1.73;;;1.63;;
4391;SDS011;2210;51.938;8.488;2023-07-31T00:54:57;1.23;;;1.13;;
4391;SDS011;2210;51.938;8.488;2023-07-31T00:58:58;1.40;;;1.30;;
4391;SDS011;2210;51.938;8.488;2023-07-31T01:02:58;2.10;;;1.20;;
4391;SDS011;2210;51.938;8.488;2023-07-31T01:07:06;1.33;;;1.23;;
4391;SDS011;2210;51.938;8.488;2023-07-31T01:11:31;1.00;;;1.00;;
4391;SDS011;2210;51.938;8.488;2023-07-31T01:15:35;1.40;;;1.30;;
4391;SDS011;2210;51.938;8.488;2023-07-31T01:19:35;2.53;;;1.13;;
4391;SDS011;2210;51.938;8.488;2023-07-31T01:23:47;1.87;;;1.03;;
4391;SDS011;2210;51.938;8.488;2023-07-31T01:28:10;1.17;;;1.07;;
4391;SDS011;2210;51.938;8.488;2023-07-31T01:32:14;1.37;;;1.27;;
4391;SDS011;2210;51.938;8.488;2023-07-31T01:36:18;1.30;;;1.20;;
4391;SDS011;2210;51.938;8.488;2023-07-31T01:40:18;2.00;;;1.30;;
4391;SDS011;2210;51.938;8.488;2023-07-31T01:44:21;1.10;;;1.00;;
4391;SDS011;2210;51.938;8.488;2023-07-31T01:48:22;1.17;;;1.03;;
4391;SDS011;2210;51.938;8.488;2023-07-31T01:52:22;3.27;;;1.23;;
4391;SDS011;2210;51.938;8.488;2023-07-31T01:56:22;1.97;;;1.43;;
4391;SDS011;2210;51.938;8.488;2023-07-31T02:00:23;1.98;;;1.40;;
4391;SDS011;2210;51.938;8.488;2023-07-31T02:04:26;1.73;;;1.37;;
4391;SDS011;2210;51.938;8.488;2023-07-31T02:08:26;2.83;;;1.43;;
4391;SDS011;2210;51.938;8.488;2023-07-31T02:12:26;1.43;;;1.30;;
4391;SDS011;2210;51.938;8.488;2023-07-31T02:16:29;2.77;;;1.33;;
4391;SDS011;2210;51.938;8.488;2023-07-31T02:20:32;1.30;;;1.13;;
4391;SDS011;2210;51.938;8.488;2023-07-31T02:24:33;1.40;;;1.30;;
4391;SDS011;2210;51.938;8.488;2023-07-31T02:28:34;1.00;;;0.90;;
4391;SDS011;2210;51.938;8.488;2023-07-31T02:32:37;1.53;;;1.00;;
4391;SDS011;2210;51.938;8.488;2023-07-31T02:36:46;1.63;;;1.20;;
4391;SDS011;2210;51.938;8.488;2023-07-31T02:40:47;1.90;;;1.13;;
4391;SDS011;2210;51.938;8.488;2023-07-31T02:44:48;1.53;;;1.30;;
4391;SDS011;2210;51.938;8.488;2023-07-31T02:48:49;1.53;;;1.40;;
4391;SDS011;2210;51.938;8.488;2023-07-31T02:52:55;1.20;;;1.10;;
4391;SDS011;2210;51.938;8.488;2023-07-31T02:56:55;1.20;;;1.00;;
4391;SDS011;2210;51.938;8.488;2023-07-31T03:00:55;1.93;;;1.30;;
4391;SDS011;2210;51.938;8.488;2023-07-31T03:04:58;1.73;;;1.50;;
4391;SDS011;2210;51.938;8.488;2023-07-31T03:08:58;2.20;;;1.77;;
4391;SDS011;2210;51.938;8.488;2023-07-31T03:12:58;2.87;;;2.43;;
4391;SDS011;2210;51.938;8.488;2023-07-31T03:16:59;3.87;;;2.47;;
4391;SDS011;2210;51.938;8.488;2023-07-31T03:21:02;3.20;;;2.87;;
4391;SDS011;2210;51.938;8.488;2023-07-31T03:25:02;4.07;;;2.87;;
4391;SDS011;2210;51.938;8.488;2023-07-31T03:29:07;4.23;;;3.63;;
4391;SDS011;2210;51.938;8.488;2023-07-31T03:33:07;5.20;;;4.10;;
4391;SDS011;2210;51.938;8.488;2023-07-31T03:37:08;10.97;;;4.50;;
4391;SDS011;2210;51.938;8.488;2023-07-31T03:41:09;7.03;;;4.70;;
4391;SDS011;2210;51.938;8.488;2023-07-31T03:45:10;12.27;;;5.00;;
4391;SDS011;2210;51.938;8.488;2023-07-31T03:49:10;8.33;;;5.30;;
4391;SDS011;2210;51.938;8.488;2023-07-31T03:53:14;5.30;;;4.50;;
4391;SDS011;2210;51.938;8.488;2023-07-31T03:57:14;8.77;;;4.87;;
4391;SDS011;2210;51.938;8.488;2023-07-31T04:01:14;8.40;;;4.83;;
4391;SDS011;2210;51.938;8.488;2023-07-31T04:05:15;9.50;;;4.73;;
4391;SDS011;2210;51.938;8.488;2023-07-31T04:09:24;8.70;;;4.80;;
4391;SDS011;2210;51.938;8.488;2023-07-31T04:13:25;10.23;;;4.60;;
4391;SDS011;2210;51.938;8.488;2023-07-31T04:17:27;8.37;;;4.63;;
4391;SDS011;2210;51.938;8.488;2023-07-31T04:21:30;6.35;;;4.63;;
4391;SDS011;2210;51.938;8.488;2023-07-31T04:25:31;8.00;;;4.20;;
4391;SDS011;2210;51.938;8.488;2023-07-31T04:29:31;8.40;;;4.30;;
4391;SDS011;2210;51.938;8.488;2023-07-31T04:33:32;9.20;;;4.57;;
4391;SDS011;2210;51.938;8.488;2023-07-31T04:37:32;9.00;;;4.17;;
4391;SDS011;2210;51.938;8.488;2023-07-31T04:41:33;10.73;;;4.83;;
4391;SDS011;2210;51.938;8.488;2023-07-31T04:45:33;7.10;;;4.60;;
4391;SDS011;2210;51.938;8.488;2023-07-31T04:49:34;9.63;;;5.10;;
4391;SDS011;2210;51.938;8.488;2023-07-31T04:53:35;7.20;;;4.70;;
4391;SDS011;2210;51.938;8.488;2023-07-31T04:57:35;11.57;;;4.30;;
4391;SDS011;2210;51.938;8.488;2023-07-31T05:01:45;11.33;;;4.47;;
4391;SDS011;2210;51.938;8.488;2023-07-31T05:05:45;5.80;;;3.90;;
4391;SDS011;2210;51.938;8.488;2023-07-31T05:09:49;10.30;;;3.90;;
4391;SDS011;2210;51.938;8.488;2023-07-31T05:13:49;6.80;;;4.00;;
4391;SDS011;2210;51.938;8.488;2023-07-31T05:17:49;5.13;;;3.60;;
4391;SDS011;2210;51.938;8.488;2023-07-31T05:21:50;9.60;;;5.20;;
4391;SDS011;2210;51.938;8.488;2023-07-31T05:25:50;8.20;;;4.40;;
4391;SDS011;2210;51.938;8.488;2023-07-31T05:29:50;7.37;;;4.30;;
4391;SDS011;2210;51.938;8.488;2023-07-31T05:33:54;8.00;;;3.72;;
4391;SDS011;2210;51.938;8.488;2023-07-31T05:37:54;6.70;;;3.83;;
4391;SDS011;2210;51.938;8.488;2023-07-31T05:41:57;8.43;;;4.37;;
4391;SDS011;2210;51.938;8.488;2023-07-31T05:45:58;6.87;;;3.73;;
4391;SDS011;2210;51.938;8.488;2023-07-31T05:49:58;4.90;;;3.67;;
4391;SDS011;2210;51.938;8.488;2023-07-31T05:53:58;10.13;;;4.17;;
4391;SDS011;2210;51.938;8.488;2023-07-31T05:57:58;6.40;;;3.70;;
4391;SDS011;2210;51.938;8.488;2023-07-31T06:01:59;6.00;;;3.27;;
4391;SDS011;2210;51.938;8.488;2023-07-31T06:05:59;6.47;;;3.60;;
4391;SDS011;2210;51.938;8.488;2023-07-31T06:10:00;5.60;;;3.40;;
4391;SDS011;2210;51.938;8.488;2023-07-31T06:14:05;11.07;;;3.70;;
4391;SDS011;2210;51.938;8.488;2023-07-31T06:18:08;10.27;;;3.67;;
4391;SDS011;2210;51.938;8.488;2023-07-31T06:22:09;4.80;;;3.03;;
4391;SDS011;2210;51.938;8.488;2023-07-31T06:26:18;7.87;;;3.47;;
4391;SDS011;2210;51.938;8.488;2023-07-31T06:30:18;6.40;;;3.30;;
4391;SDS011;2210;51.938;8.488;2023-07-31T06:34:22;11.83;;;3.23;;
4391;SDS011;2210;51.938;8.488;2023-07-31T06:38:28;4.83;;;3.07;;
4391;SDS011;2210;51.938;8.488;2023-07-31T06:42:29;6.13;;;3.97;;
4391;SDS011;2210;51.938;8.488;2023-07-31T06:46:29;8.30;;;3.63;;
4391;SDS011;2210;51.938;8.488;2023-07-31T06:50:30;7.83;;;3.30;;
4391;SDS011;2210;51.938;8.488;2023-07-31T06:54:30;8.60;;;3.77;;
4391;SDS011;2210;51.938;8.488;2023-07-31T06:58:31;6.90;;;3.87;;
4391;SDS011;2210;51.938;8.488;2023-07-31T07:02:31;5.20;;;3.30;;
4391;SDS011;2210;51.938;8.488;2023-07-31T07:06:31;8.33;;;3.80;;
4391;SDS011;2210;51.938;8.488;2023-07-31T07:10:31;5.90;;;3.47;;
4391;SDS011;2210;51.938;8.488;2023-07-31T07:14:32;9.33;;;3.57;;
4391;SDS011;2210;51.938;8.488;2023-07-31T07:18:32;7.30;;;2.87;;
4391;SDS011;2210;51.938;8.488;2023-07-31T07:22:32;6.47;;;2.93;;
4391;SDS011;2210;51.938;8.488;2023-07-31T07:26:36;5.97;;;3.80;;
4391;SDS011;2210;51.938;8.488;2023-07-31T07:30:50;8.00;;;3.13;;
4391;SDS011;2210;51.938;8.488;2023-07-31T07:34:51;8.33;;;4.33;;
4391;SDS011;2210;51.938;8.488;2023-07-31T07:38:54;6.27;;;3.30;;
4391;SDS011;2210;51.938;8.488;2023-07-31T07:42:54;3.90;;;2.43;;
4391;SDS011;2210;51.938;8.488;2023-07-31T07:46:55;5.70;;;2.93;;
4391;SDS011;2210;51.938;8.488;2023-07-31T07:50:55;5.77;;;2.77;;
4391;SDS011;2210;51.938;8.488;2023-07-31T07:54:58;15.93;;;2.60;;
4391;SDS011;2210;51.938;8.488;2023-07-31T07:59:00;8.13;;;2.60;;
4391;SDS011;2210;51.938;8.488;2023-07-31T08:03:00;3.53;;;2.50;;
4391;SDS011;2210;51.938;8.488;2023-07-31T08:07:00;3.70;;;2.50;;
4391;SDS011;2210;51.938;8.488;2023-07-31T08:11:01;6.27;;;2.07;;
4391;SDS011;2210;51.938;8.488;2023-07-31T08:15:01;4.10;;;2.47;;
4391;SDS011;2210;51.938;8.488;2023-07-31T08:19:11;2.90;;;2.43;;
4391;SDS011;2210;51.938;8.488;2023-07-31T08:23:14;7.43;;;2.33;;
4391;SDS011;2210;51.938;8.488;2023-07-31T08:27:15;5.37;;;2.97;;
4391;SDS011;2210;51.938;8.488;2023-07-31T08:31:15;2.40;;;2.20;;
4391;SDS011;2210;51.938;8.488;2023-07-31T08:35:19;3.97;;;2.70;;
4391;SDS011;2210;51.938;8.488;2023-07-31T08:39:19;5.13;;;3.23;;
4391;SDS011;2210;51.938;8.488;2023-07-31T08:43:19;4.80;;;3.10;;
4391;SDS011;2210;51.938;8.488;2023-07-31T08:47:21;5.27;;;2.90;;
4391;SDS011;2210;51.938;8.488;2023-07-31T08:51:22;9.03;;;3.80;;
4391;SDS011;2210;51.938;8.488;2023-07-31T08:55:26;4.63;;;3.00;;
4391;SDS011;2210;51.938;8.488;2023-07-31T08:59:28;5.83;;;2.73;;
4391;SDS011;2210;51.938;8.488;2023-07-31T09:03:33;4.00;;;2.63;;
4391;SDS011;2210;51.938;8.488;2023-07-31T09:07:37;4.30;;;2.77;;
4391;SDS011;2210;51.938;8.488;2023-07-31T09:11:38;5.80;;;2.70;;
4391;SDS011;2210;51.938;8.488;2023-07-31T09:15:40;3.40;;;2.50;;
4391;SDS011;2210;51.938;8.488;2023-07-31T09:19:42;4.10;;;2.80;;
4391;SDS011;2210;51.938;8.488;2023-07-31T09:23:43;3.73;;;2.70;;
4391;SDS011;2210;51.938;8.488;2023-07-31T09:27:45;4.37;;;2.73;;
4391;SDS011;2210;51.938;8.488;2023-07-31T09:31:50;2.87;;;2.17;;
4391;SDS011;2210;51.938;8.488;2023-07-31T09:35:50;3.47;;;2.20;;
4391;SDS011;2210;51.938;8.488;2023-07-31T09:40:12;3.40;;;2.43;;
4391;SDS011;2210;51.938;8.488;2023-07-31T09:44:41;8.90;;;2.80;;
4391;SDS011;2210;51.938;8.488;2023-07-31T09:48:41;3.90;;;2.50;;
4391;SDS011;2210;51.938;8.488;2023-07-31T09:52:42;5.20;;;2.53;;
4391;SDS011;2210;51.938;8.488;2023-07-31T09:56:43;2.57;;;2.20;;
4391;SDS011;2210;51.938;8.488;2023-07-31T10:00:45;3.00;;;2.57;;
4391;SDS011;2210;51.938;8.488;2023-07-31T10:04:45;6.70;;;2.70;;
4391;SDS011;2210;51.938;8.488;2023-07-31T10:08:49;2.80;;;2.60;;
4391;SDS011;2210;51.938;8.488;2023-07-31T10:12:52;3.40;;;2.60;;
4391;SDS011;2210;51.938;8.488;2023-07-31T10:16:53;5.63;;;2.10;;
4391;SDS011;2210;51.938;8.488;2023-07-31T10:20:55;2.70;;;2.07;;
4391;SDS011;2210;51.938;8.488;2023-07-31T10:24:57;2.77;;;2.33;;
4391;SDS011;2210;51.938;8.488;2023-07-31T10:28:59;2.90;;;1.30;;
4391;SDS011;2210;51.938;8.488;2023-07-31T10:33:00;3.07;;;1.50;;
4391;SDS011;2210;51.938;8.488;2023-07-31T10:41:29;1.70;;;1.30;;
4391;SDS011;2210;51.938;8.488;2023-07-31T10:49:47;1.90;;;1.70;;
4391;SDS011;2210;51.938;8.488;2023-07-31T10:53:51;4.60;;;1.30;;
4391;SDS011;2210;51.938;8.488;2023-07-31T10:58:18;1.67;;;1.10;;
4391;SDS011;2210;51.938;8.488;2023-07-31T11:02:26;1.10;;;0.97;;
4391;SDS011;2210;51.938;8.488;2023-07-31T11:06:29;1.63;;;1.20;;
4391;SDS011;2210;51.938;8.488;2023-07-31T11:10:30;1.53;;;1.43;;
4391;SDS011;2210;51.938;8.488;2023-07-31T11:14:30;1.50;;;1.30;;
4391;SDS011;2210;51.938;8.488;2023-07-31T11:18:30;2.10;;;1.20;;
4391;SDS011;2210;51.938;8.488;2023-07-31T11:22:31;1.20;;;1.10;;
4391;SDS011;2210;51.938;8.488;2023-07-31T11:26:31;3.47;;;1.43;;
4391;SDS011;2210;51.938;8.488;2023-07-31T11:30:31;2.13;;;1.40;;
4391;SDS011;2210;51.938;8.488;2023-07-31T11:34:32;1.80;;;1.33;;
4391;SDS011;2210;51.938;8.488;2023-07-31T11:38:33;1.70;;;1.53;;
4391;SDS011;2210;51.938;8.488;2023-07-31T11:42:37;9.83;;;2.03;;
4391;SDS011;2210;51.938;8.488;2023-07-31T11:46:37;2.07;;;1.63;;
4391;SDS011;2210;51.938;8.488;2023-07-31T11:50:38;1.63;;;1.53;;
4391;SDS011;2210;51.938;8.488;2023-07-31T11:54:39;1.20;;;1.10;;
4391;SDS011;2210;51.938;8.488;2023-07-31T11:58:41;1.40;;;1.30;;
4391;SDS011;2210;51.938;8.488;2023-07-31T12:02:43;2.40;;;1.33;;
4391;SDS011;2210;51.938;8.488;2023-07-31T12:06:44;3.47;;;1.10;;
4391;SDS011;2210;51.938;8.488;2023-07-31T12:10:45;2.10;;;1.40;;
4391;SDS011;2210;51.938;8.488;2023-07-31T12:14:50;1.17;;;1.07;;
4391;SDS011;2210;51.938;8.488;2023-07-31T12:18:53;1.20;;;1.10;;
4391;SDS011;2210;51.938;8.488;2023-07-31T12:22:55;1.40;;;1.30;;
4391;SDS011;2210;51.938;8.488;2023-07-31T12:26:57;4.97;;;1.60;;
4391;SDS011;2210;51.938;8.488;2023-07-31T12:30:58;1.23;;;1.13;;
4391;SDS011;2210;51.938;8.488;2023-07-31T12:35:00;1.30;;;1.20;;
4391;SDS011;2210;51.938;8.488;2023-07-31T12:39:01;1.23;;;1.13;;
4391;SDS011;2210;51.938;8.488;2023-07-31T12:43:01;1.20;;;1.10;;
4391;SDS011;2210;51.938;8.488;2023-07-31T12:47:05;1.37;;;1.10;;
4391;SDS011;2210;51.938;8.488;2023-07-31T12:51:05;2.70;;;1.10;;
4391;SDS011;2210;51.938;8.488;2023-07-31T12:55:09;1.17;;;1.07;;
4391;SDS011;2210;51.938;8.488;2023-07-31T12:59:10;2.50;;;1.37;;
4391;SDS011;2210;51.938;8.488;2023-07-31T13:03:11;1.90;;;1.37;;
4391;SDS011;2210;51.938;8.488;2023-07-31T13:07:11;3.00;;;1.93;;
4391;SDS011;2210;51.938;8.488;2023-07-31T13:11:11;2.43;;;1.67;;
4391;SDS011;2210;51.938;8.488;2023-07-31T13:15:12;2.57;;;2.20;;
4391;SDS011;2210;51.938;8.488;2023-07-31T13:19:12;2.37;;;1.80;;
4391;SDS011;2210;51.938;8.488;2023-07-31T13:23:12;2.73;;;1.87;;
4391;SDS011;2210;51.938;8.488;2023-07-31T13:27:13;5.05;;;1.95;;
4391;SDS011;2210;51.938;8.488;2023-07-31T13:31:16;2.20;;;2.00;;
4391;SDS011;2210;51.938;8.488;2023-07-31T13:35:17;2.42;;;1.98;;
4391;SDS011;2210;51.938;8.488;2023-07-31T13:39:17;2.40;;;1.97;;
4391;SDS011;2210;51.938;8.488;2023-07-31T13:43:17;1.80;;;1.70;;
4391;SDS011;2210;51.938;8.488;2023-07-31T13:47:17;4.40;;;2.10;;
4391;SDS011;2210;51.938;8.488;2023-07-31T13:51:18;2.53;;;1.90;;
4391;SDS011;2210;51.938;8.488;2023-07-31T13:55:18;2.10;;;1.95;;
4391;SDS011;2210;51.938;8.488;2023-07-31T13:59:18;1.83;;;1.70;;
4391;SDS011;2210;51.938;8.488;2023-07-31T14:03:21;5.53;;;2.07;;
4391;SDS011;2210;51.938;8.488;2023-07-31T14:07:22;2.23;;;1.60;;
4391;SDS011;2210;51.938;8.488;2023-07-31T14:11:22;1.60;;;1.43;;
4391;SDS011;2210;51.938;8.488;2023-07-31T14:15:22;2.93;;;2.10;;
4391;SDS011;2210;51.938;8.488;2023-07-31T14:19:23;3.50;;;2.20;;
4391;SDS011;2210;51.938;8.488;2023-07-31T14:23:24;2.60;;;1.70;;
4391;SDS011;2210;51.938;8.488;2023-07-31T14:27:25;1.97;;;1.67;;
4391;SDS011;2210;51.938;8.488;2023-07-31T14:31:25;2.23;;;1.70;;
4391;SDS011;2210;51.938;8.488;2023-07-31T14:35:25;1.83;;;1.60;;
4391;SDS011;2210;51.938;8.488;2023-07-31T14:39:26;2.13;;;1.90;;
4391;SDS011;2210;51.938;8.488;2023-07-31T14:43:26;2.20;;;1.60;;
4391;SDS011;2210;51.938;8.488;2023-07-31T14:47:26;2.17;;;1.80;;
4391;SDS011;2210;51.938;8.488;2023-07-31T14:51:26;1.50;;;1.40;;
4391;SDS011;2210;51.938;8.488;2023-07-31T14:55:27;2.40;;;1.40;;
4391;SDS011;2210;51.938;8.488;2023-07-31T14:59:27;2.38;;;1.27;;
4391;SDS011;2210;51.938;8.488;2023-07-31T15:03:27;1.77;;;1.47;;
4391;SDS011;2210;51.938;8.488;2023-07-31T15:07:28;1.40;;;1.30;;
4391;SDS011;2210;51.938;8.488;2023-07-31T15:11:28;1.70;;;1.60;;
4391;SDS011;2210;51.938;8.488;2023-07-31T15:15:32;1.93;;;1.30;;
4391;SDS011;2210;51.938;8.488;2023-07-31T15:19:37;1.50;;;1.30;;
4391;SDS011;2210;51.938;8.488;2023-07-31T15:23:37;2.20;;;1.37;;
4391;SDS011;2210;51.938;8.488;2023-07-31T15:27:38;1.37;;;1.27;;
4391;SDS011;2210;51.938;8.488;2023-07-31T15:31:41;1.53;;;1.43;;
4391;SDS011;2210;51.938;8.488;2023-07-31T15:35:42;2.10;;;1.47;;
4391;SDS011;2210;51.938;8.488;2023-07-31T15:39:43;1.70;;;1.60;;
4391;SDS011;2210;51.938;8.488;2023-07-31T15:43:43;1.60;;;1.10;;
4391;SDS011;2210;51.938;8.488;2023-07-31T15:47:43;1.97;;;1.60;;
4391;SDS011;2210;51.938;8.488;2023-07-31T15:51:44;1.70;;;1.60;;
4391;SDS011;2210;51.938;8.488;2023-07-31T15:55:44;1.80;;;1.70;;
4391;SDS011;2210;51.938;8.488;2023-07-31T15:59:44;3.87;;;1.90;;
4391;SDS011;2210;51.938;8.488;2023-07-31T16:03:45;2.70;;;1.67;;
4391;SDS011;2210;51.938;8.488;2023-07-31T16:07:45;4.23;;;1.90;;
4391;SDS011;2210;51.938;8.488;2023-07-31T16:11:46;4.25;;;1.67;;
4391;SDS011;2210;51.938;8.488;2023-07-31T16:15:46;2.27;;;2.00;;
4391;SDS011;2210;51.938;8.488;2023-07-31T16:19:47;2.20;;;1.60;;
4391;SDS011;2210;51.938;8.488;2023-07-31T16:23:50;1.90;;;1.70;;
4391;SDS011;2210;51.938;8.488;2023-07-31T16:27:51;2.60;;;1.93;;
4391;SDS011;2210;51.938;8.488;2023-07-31T16:31:51;4.33;;;2.37;;
4391;SDS011;2210;51.938;8.488;2023-07-31T16:35:51;3.30;;;2.03;;
4391;SDS011;2210;51.938;8.488;2023-07-31T16:40:01;7.87;;;2.00;;
4391;SDS011;2210;51.938;8.488;2023-07-31T16:44:01;6.30;;;2.07;;
4391;SDS011;2210;51.938;8.488;2023-07-31T16:48:01;3.33;;;1.73;;
4391;SDS011;2210;51.938;8.488;2023-07-31T16:52:02;2.47;;;2.07;;
4391;SDS011;2210;51.938;8.488;2023-07-31T16:56:03;2.37;;;2.17;;
4391;SDS011;2210;51.938;8.488;2023-07-31T17:00:06;4.90;;;2.17;;
4391;SDS011;2210;51.938;8.488;2023-07-31T17:04:10;2.50;;;2.20;;
4391;SDS011;2210;51.938;8.488;2023-07-31T17:08:10;3.83;;;2.00;;
4391;SDS011;2210;51.938;8.488;2023-07-31T17:12:11;2.37;;;1.97;;
4391;SDS011;2210;51.938;8.488;2023-07-31T17:16:12;4.40;;;2.57;;
4391;SDS011;2210;51.938;8.488;2023-07-31T17:20:12;5.47;;;2.13;;
4391;SDS011;2210;51.938;8.488;2023-07-31T17:24:12;3.10;;;2.60;;
4391;SDS011;2210;51.938;8.488;2023-07-31T17:28:15;3.47;;;2.43;;
4391;SDS011;2210;51.938;8.488;2023-07-31T17:32:16;4.83;;;2.90;;
4391;SDS011;2210;51.938;8.488;2023-07-31T17:36:16;2.60;;;1.83;;
4391;SDS011;2210;51.938;8.488;2023-07-31T17:40:28;3.20;;;2.40;;
4391;SDS011;2210;51.938;8.488;2023-07-31T17:44:29;2.83;;;2.40;;
4391;SDS011;2210;51.938;8.488;2023-07-31T17:48:32;2.60;;;2.20;;
4391;SDS011;2210;51.938;8.488;2023-07-31T17:52:33;4.80;;;2.50;;
4391;SDS011;2210;51.938;8.488;2023-07-31T17:56:34;3.10;;;2.50;;
4391;SDS011;2210;51.938;8.488;2023-07-31T18:00:39;4.33;;;2.80;;
4391;SDS011;2210;51.938;8.488;2023-07-31T18:04:43;5.00;;;3.77;;
4391;SDS011;2210;51.938;8.488;2023-07-31T18:08:50;3.43;;;2.70;;
4391;SDS011;2210;51.938;8.488;2023-07-31T18:12:52;2.93;;;2.63;;
4391;SDS011;2210;51.938;8.488;2023-07-31T18:16:54;2.73;;;2.47;;
4391;SDS011;2210;51.938;8.488;2023-07-31T18:20:55;3.10;;;2.53;;
4391;SDS011;2210;51.938;8.488;2023-07-31T18:24:56;3.07;;;2.50;;
4391;SDS011;2210;51.938;8.488;2023-07-31T18:28:56;5.67;;;2.53;;
4391;SDS011;2210;51.938;8.488;2023-07-31T18:32:56;2.35;;;2.15;;
4391;SDS011;2210;51.938;8.488;2023-07-31T18:36:56;4.80;;;3.00;;
4391;SDS011;2210;51.938;8.488;2023-07-31T18:40:57;3.10;;;2.40;;
4391;SDS011;2210;51.938;8.488;2023-07-31T18:45:00;3.50;;;2.90;;
4391;SDS011;2210;51.938;8.488;2023-07-31T18:49:01;3.43;;;2.27;;
4391;SDS011;2210;51.938;8.488;2023-07-31T18:53:01;2.67;;;2.30;;
4391;SDS011;2210;51.938;8.488;2023-07-31T18:57:01;3.17;;;2.67;;
4391;SDS011;2210;51.938;8.488;2023-07-31T19:01:02;2.40;;;2.10;;
4391;SDS011;2210;51.938;8.488;2023-07-31T19:05:03;3.60;;;2.30;;
4391;SDS011;2210;51.938;8.488;2023-07-31T19:09:03;2.70;;;2.10;;
4391;SDS011;2210;51.938;8.488;2023-07-31T19:13:04;5.93;;;2.40;;
4391;SDS011;2210;51.938;8.488;2023-07-31T19:17:07;3.43;;;2.40;;
4391;SDS011;2210;51.938;8.488;2023-07-31T19:21:10;2.37;;;2.03;;
4391;SDS011;2210;51.938;8.488;2023-07-31T19:25:10;6.90;;;2.33;;
4391;SDS011;2210;51.938;8.488;2023-07-31T19:29:11;4.43;;;2.30;;
4391;SDS011;2210;51.938;8.488;2023-07-31T19:33:15;2.43;;;2.23;;
4391;SDS011;2210;51.938;8.488;2023-07-31T19:37:21;4.30;;;2.20;;
4391;SDS011;2210;51.938;8.488;2023-07-31T19:41:21;2.73;;;2.30;;
4391;SDS011;2210;51.938;8.488;2023-07-31T19:45:21;5.77;;;2.13;;
4391;SDS011;2210;51.938;8.488;2023-07-31T19:49:22;3.53;;;2.40;;
4391;SDS011;2210;51.938;8.488;2023-07-31T19:53:22;2.90;;;2.07;;
4391;SDS011;2210;51.938;8.488;2023-07-31T19:57:25;1.70;;;1.57;;
4391;SDS011;2210;51.938;8.488;2023-07-31T20:01:27;5.33;;;1.90;;
4391;SDS011;2210;51.938;8.488;2023-07-31T20:05:27;2.60;;;1.60;;
4391;SDS011;2210;51.938;8.488;2023-07-31T20:09:27;2.27;;;2.07;;
4391;SDS011;2210;51.938;8.488;2023-07-31T20:13:28;2.70;;;1.57;;
4391;SDS011;2210;51.938;8.488;2023-07-31T20:17:33;2.17;;;1.70;;
4391;SDS011;2210;51.938;8.488;2023-07-31T20:21:34;2.07;;;1.57;;
4391;SDS011;2210;51.938;8.488;2023-07-31T20:25:40;1.80;;;1.37;;
4391;SDS011;2210;51.938;8.488;2023-07-31T20:29:44;2.50;;;1.80;;
4391;SDS011;2210;51.938;8.488;2023-07-31T20:33:44;1.60;;;1.23;;
4391;SDS011;2210;51.938;8.488;2023-07-31T20:37:44;1.42;;;1.33;;
4391;SDS011;2210;51.938;8.488;2023-07-31T20:41:48;3.90;;;1.43;;
4391;SDS011;2210;51.938;8.488;2023-07-31T20:45:55;1.57;;;1.27;;
4391;SDS011;2210;51.938;8.488;2023-07-31T20:49:56;2.87;;;1.20;;
4391;SDS011;2210;51.938;8.488;2023-07-31T20:53:56;2.70;;;1.33;;
4391;SDS011;2210;51.938;8.488;2023-07-31T20:57:58;3.00;;;1.30;;
4391;SDS011;2210;51.938;8.488;2023-07-31T21:01:58;3.13;;;1.27;;
4391;SDS011;2210;51.938;8.488;2023-07-31T21:05:58;1.20;;;1.10;;
4391;SDS011;2210;51.938;8.488;2023-07-31T21:10:00;1.57;;;0.97;;
4391;SDS011;2210;51.938;8.488;2023-07-31T21:14:06;1.80;;;1.07;;
4391;SDS011;2210;51.938;8.488;2023-07-31T21:18:10;1.03;;;0.77;;
4391;SDS011;2210;51.938;8.488;2023-07-31T21:22:13;0.93;;;0.93;;
4391;SDS011;2210;51.938;8.488;2023-07-31T21:26:13;4.50;;;1.10;;
4391;SDS011;2210;51.938;8.488;2023-07-31T21:30:14;4.10;;;0.97;;
4391;SDS011;2210;51.938;8.488;2023-07-31T21:34:14;2.07;;;1.10;;
4391;SDS011;2210;51.938;8.488;2023-07-31T21:38:14;2.20;;;1.00;;
4391;SDS011;2210;51.938;8.488;2023-07-31T21:42:18;3.00;;;0.80;;
4391;SDS011;2210;51.938;8.488;2023-07-31T21:46:19;2.10;;;1.00;;
4391;SDS011;2210;51.938;8.488;2023-07-31T21:50:20;0.77;;;0.77;;
4391;SDS011;2210;51.938;8.488;2023-07-31T21:54:20;1.10;;;0.90;;
4391;SDS011;2210;51.938;8.488;2023-07-31T21:58:20;0.70;;;0.70;;
4391;SDS011;2210;51.938;8.488;2023-07-31T22:02:24;1.02;;;0.77;;
4391;SDS011;2210;51.938;8.488;2023-07-31T22:06:24;0.70;;;0.70;;
4391;SDS011;2210;51.938;8.488;2023-07-31T22:10:30;4.00;;;0.80;;
4391;SDS011;2210;51.938;8.488;2023-07-31T22:14:31;4.50;;;1.70;;
4391;SDS011;2210;51.938;8.488;2023-07-31T22:18:31;2.70;;;0.70;;
4391;SDS011;2210;51.938;8.488;2023-07-31T22:22:31;0.80;;;0.77;;
4391;SDS011;2210;51.938;8.488;2023-07-31T22:26:32;2.17;;;0.90;;
4391;SDS011;2210;51.938;8.488;2023-07-31T22:30:38;1.40;;;0.95;;
4391;SDS011;2210;51.938;8.488;2023-07-31T22:34:39;1.00;;;0.80;;
4391;SDS011;2210;51.938;8.488;2023-07-31T22:38:39;1.00;;;0.70;;
4391;SDS011;2210;51.938;8.488;2023-07-31T22:42:39;1.40;;;0.97;;
4391;SDS011;2210;51.938;8.488;2023-07-31T22:46:40;0.85;;;0.85;;
4391;SDS011;2210;51.938;8.488;2023-07-31T22:50:40;0.87;;;0.80;;
4391;SDS011;2210;51.938;8.488;2023-07-31T22:54:40;0.93;;;0.93;;
4391;SDS011;2210;51.938;8.488;2023-07-31T22:58:40;1.00;;;1.00;;
4391;SDS011;2210;51.938;8.488;2023-07-31T23:02:41;2.42;;;1.10;;
4391;SDS011;2210;51.938;8.488;2023-07-31T23:06:41;1.87;;;1.20;;
4391;SDS011;2210;51.938;8.488;2023-07-31T23:10:41;1.17;;;0.93;;
4391;SDS011;2210;51.938;8.488;2023-07-31T23:14:47;1.00;;;1.00;;
4391;SDS011;2210;51.938;8.488;2023-07-31T23:18:47;1.43;;;1.33;;
4391;SDS011;2210;51.938;8.488;2023-07-31T23:22:47;1.10;;;1.00;;
4391;SDS011;2210;51.938;8.488;2023-07-31T23:26:48;0.93;;;0.93;;
4391;SDS011;2210;51.938;8.488;2023-07-31T23:30:48;0.60;;;0.60;;
4391;SDS011;2210;51.938;8.488;2023-07-31T23:34:48;1.10;;;1.10;;
4391;SDS011;2210;51.938;8.488;2023-07-31T23:38:49;2.33;;;1.20;;
4391;SDS011;2210;51.938;8.488;2023-07-31T23:43:01;1.63;;;1.00;;
4391;SDS011;2210;51.938;8.488;2023-07-31T23:47:01;1.20;;;0.90;;
4391;SDS011;2210;51.938;8.488;2023-07-31T23:51:01;1.53;;;1.20;;
4391;SDS011;2210;51.938;8.488;2023-07-31T23:55:05;3.23;;;0.90;;
4391;SDS011;2210;51.938;8.488;2023-07-31T23:59:07;1.33;;;0.90;;
